Ana Sayfa
METAR-TAF:

METAR-TAF

Havaalanları :

Bellaire, Michigan, Amerika Birleşik Devletleri

Enlem: 44-59-18N, Boylam: 085-11-54W, yükseklik: 190 m

Güncel hava durumu gözlemi

Rapor saat 15:15 UTC de 17 dakika önce yapıldı.
Rüzgar batı/kuzeybatıdan 10 kt ve 20 kt'a kadar ani rüzgarlar
Sıcaklık -6°C
Nem 86%
Basınç 1009 hPa
Görüş mesafesi: 1.2 km
1300 ft yükseklikte çok bulutlu
hafif kar

METAR: KACB 281515Z AUTO 29010G20KT 3/4SM -SN OVC013 M06/M08 A2980 RMK AO2 T10571085

Saat: 10:32 (15:32 UTC)


TAF: eksik

4.000'den fazla havaalanı için hava durumu gözlemleri ve tahminleri (METAR ve TAF raporları).

Kullanılabilir istasyonlar harita üzerinde sarı ve kırmızı noktalarla gösterilir.

İstasyonun adını görmek için fareyi noktanın üzerinde gezdirin.

Sonrasında hava gözlem ve tahminlerini görmek için tıklayın.

Haritayı değiştirmek için: yaklaştırmak için siyah artı işaretli yeşil düğmeye ve uzaklaştırmak için de eksi işaretli düğmeye hızla tıklayın; bitişik haritalar için yeşil okları kullanın.


METAR-TAF: